createdAt,value
2023-04-07T00:00:37.199Z,12.33
2023-04-07T00:03:07.298Z,12.31
2023-04-07T00:05:35.876Z,12.18
2023-04-07T00:08:05.541Z,12.39
2023-04-07T00:10:33.772Z,12.15
2023-04-07T00:13:02.114Z,12.11
2023-04-07T00:15:30.940Z,12.03
2023-04-07T00:17:59.203Z,12.21
2023-04-07T00:20:27.560Z,12.05
2023-04-07T00:22:55.862Z,12.19
2023-04-07T00:25:25.593Z,11.93
2023-04-07T00:27:53.934Z,12.11
2023-04-07T00:30:22.458Z,12.21
2023-04-07T00:32:51.532Z,12.17
2023-04-07T00:35:20.378Z,12.15
2023-04-07T00:37:48.774Z,12.01
2023-04-07T00:40:18.171Z,12.18
2023-04-07T00:42:47.812Z,12.53
2023-04-07T00:45:16.148Z,12.41
2023-04-07T00:47:44.477Z,12.50
2023-04-07T00:50:13.188Z,12.28
2023-04-07T00:52:41.720Z,12.30
2023-04-07T00:55:10.976Z,12.15
2023-04-07T00:57:39.255Z,12.59
2023-04-07T01:00:19.691Z,12.60
2023-04-07T01:02:58.866Z,12.22
2023-04-07T01:05:37.722Z,12.18
2023-04-07T01:08:14.589Z,12.50
2023-04-07T01:10:51.154Z,12.80
2023-04-07T01:13:28.760Z,12.15
2023-04-07T01:16:02.044Z,12.58
2023-04-07T01:18:34.759Z,12.59
2023-04-07T01:21:08.499Z,12.53
2023-04-07T01:24:02.411Z,12.10
2023-04-07T01:26:32.345Z,12.54
2023-04-07T01:29:40.464Z,12.77
2023-04-07T01:32:12.730Z,12.69
2023-04-07T01:34:43.178Z,12.74
2023-04-07T01:37:12.969Z,12.54
2023-04-07T01:39:41.654Z,12.62
2023-04-07T01:42:10.302Z,12.59
2023-04-07T01:44:41.071Z,12.39
2023-04-07T01:47:10.041Z,12.11
2023-04-07T01:49:39.166Z,12.32
2023-04-07T01:52:08.929Z,12.32
2023-04-07T01:54:38.067Z,12.30
2023-04-07T01:57:06.351Z,12.36
2023-04-07T01:59:34.639Z,12.63
2023-04-07T02:02:04.777Z,12.31
2023-04-07T02:04:39.677Z,12.86
2023-04-07T02:07:15.701Z,12.77
2023-04-07T02:09:48.201Z,12.36
2023-04-07T02:12:18.088Z,12.31
2023-04-07T02:14:46.699Z,12.89
2023-04-07T02:17:17.514Z,12.66
2023-04-07T02:19:47.782Z,12.37
2023-04-07T02:22:17.559Z,12.25
2023-04-07T02:24:45.744Z,12.65
2023-04-07T02:27:14.174Z,12.22
2023-04-07T02:29:42.413Z,12.32
2023-04-07T02:32:11.061Z,12.54
2023-04-07T02:34:40.938Z,12.06
2023-04-07T02:37:09.403Z,12.73
2023-04-07T02:39:37.723Z,12.66
2023-04-07T02:42:06.370Z,12.59
2023-04-07T02:44:34.773Z,12.08
2023-04-07T02:47:03.106Z,12.26
2023-04-07T02:49:31.345Z,12.58
2023-04-07T02:52:01.182Z,12.72
2023-04-07T02:54:29.505Z,12.52
2023-04-07T02:56:57.856Z,12.34
2023-04-07T02:59:26.147Z,12.70
2023-04-07T03:01:54.640Z,12.09
2023-04-07T03:04:23.653Z,12.53
2023-04-07T03:06:52.058Z,12.36
2023-04-07T03:09:21.663Z,12.51
2023-04-07T03:11:49.932Z,12.38
2023-04-07T03:14:18.220Z,12.05
2023-04-07T03:16:46.734Z,12.24
2023-04-07T03:19:16.365Z,12.57
2023-04-07T03:21:44.724Z,12.03
2023-04-07T03:24:13.004Z,12.26
2023-04-07T03:26:42.801Z,12.43
2023-04-07T03:29:11.058Z,12.06
2023-04-07T03:31:39.414Z,12.28
2023-04-07T03:34:07.769Z,12.13
2023-04-07T03:36:36.005Z,11.94
2023-04-07T03:39:04.409Z,12.32
2023-04-07T03:41:32.754Z,12.24
2023-04-07T03:44:02.351Z,12.43
2023-04-07T03:46:30.774Z,12.43
2023-04-07T03:48:58.990Z,12.16
2023-04-07T03:51:27.867Z,12.41
2023-04-07T03:53:56.371Z,12.33
2023-04-07T03:56:25.226Z,12.36
2023-04-07T03:58:54.280Z,12.36
2023-04-07T04:01:29.640Z,12.43
2023-04-07T04:03:58.313Z,12.16
2023-04-07T04:06:27.299Z,11.85
2023-04-07T04:08:55.864Z,12.63
2023-04-07T04:11:24.572Z,12.37
2023-04-07T04:13:53.095Z,12.32
2023-04-07T04:16:23.232Z,12.34
2023-04-07T04:18:51.762Z,12.67
2023-04-07T04:21:20.243Z,12.80
2023-04-07T04:23:49.523Z,12.67
2023-04-07T04:26:17.855Z,12.14
2023-04-07T04:28:47.439Z,12.43
2023-04-07T04:31:16.078Z,12.63
2023-04-07T04:33:45.987Z,12.24
2023-04-07T04:36:14.503Z,12.11
2023-04-07T04:38:42.817Z,12.11
2023-04-07T04:41:11.407Z,11.77
2023-04-07T04:43:39.973Z,12.26
2023-04-07T04:46:08.412Z,11.98
2023-04-07T04:48:36.920Z,11.86
2023-04-07T04:51:07.135Z,11.81
2023-04-07T04:53:37.088Z,12.01
2023-04-07T04:56:06.298Z,12.22
2023-04-07T04:58:34.674Z,12.64
2023-04-07T05:01:03.225Z,11.88
2023-04-07T05:03:31.665Z,12.53
2023-04-07T05:06:00.063Z,12.54
2023-04-07T05:08:30.102Z,12.29
2023-04-07T05:10:59.051Z,12.43
2023-04-07T05:13:27.638Z,12.49
2023-04-07T05:15:56.155Z,12.46
2023-04-07T05:18:25.027Z,12.24
2023-04-07T05:20:56.477Z,12.39
2023-04-07T05:23:24.990Z,12.42
2023-04-07T05:25:54.902Z,12.39
2023-04-07T05:28:24.709Z,12.42
2023-04-07T05:30:53.054Z,12.58
2023-04-07T05:33:22.570Z,12.44
2023-04-07T05:35:53.216Z,12.09
2023-04-07T05:38:21.844Z,12.37
2023-04-07T05:40:51.507Z,12.32
2023-04-07T05:43:21.635Z,12.50
2023-04-07T05:45:50.130Z,12.59
2023-04-07T05:48:18.629Z,12.84
2023-04-07T05:50:47.031Z,12.79
2023-04-07T05:53:16.262Z,12.73
2023-04-07T05:55:45.215Z,12.43
2023-04-07T05:58:13.759Z,12.39
2023-04-07T06:00:43.736Z,12.32
2023-04-07T06:03:12.277Z,12.18
2023-04-07T06:05:43.617Z,12.33
2023-04-07T06:08:12.252Z,12.37
2023-04-07T06:10:41.591Z,12.09
2023-04-07T06:13:10.193Z,12.29
2023-04-07T06:15:38.819Z,12.77
2023-04-07T06:18:08.952Z,12.17
2023-04-07T06:20:37.953Z,12.46
2023-04-07T06:23:06.739Z,12.51
2023-04-07T06:25:35.327Z,12.53
2023-04-07T06:28:04.011Z,12.05
2023-04-07T06:30:33.298Z,12.07
2023-04-07T06:33:02.227Z,12.58
2023-04-07T06:35:32.122Z,12.57
2023-04-07T06:38:00.452Z,12.72
2023-04-07T06:40:28.806Z,12.72
2023-04-07T06:42:57.755Z,12.80
2023-04-07T06:45:26.539Z,12.94
2023-04-07T06:47:55.004Z,12.36
2023-04-07T06:50:23.710Z,12.38
2023-04-07T06:52:53.820Z,12.68
2023-04-07T06:55:22.046Z,12.73
2023-04-07T06:57:52.554Z,12.53
2023-04-07T07:00:23.055Z,12.66
2023-04-07T07:05:44.636Z,12.50
2023-04-07T07:08:14.433Z,13.00
2023-04-07T07:10:44.065Z,13.04
2023-04-07T07:13:12.333Z,13.00
2023-04-07T07:15:40.825Z,13.16
2023-04-07T07:18:09.164Z,13.09
2023-04-07T07:20:37.791Z,12.96
2023-04-07T07:23:06.349Z,13.19
2023-04-07T07:25:42.383Z,13.06
2023-04-07T07:28:11.329Z,12.76
2023-04-07T07:30:42.259Z,12.64
2023-04-07T07:33:10.893Z,12.85
2023-04-07T07:35:40.532Z,13.22
2023-04-07T07:38:09.169Z,12.89
2023-04-07T07:40:39.359Z,13.16
2023-04-07T07:43:07.891Z,13.15
2023-04-07T07:45:36.578Z,12.84
2023-04-07T07:48:05.199Z,13.33
2023-04-07T07:50:33.872Z,13.35
2023-04-07T07:53:02.778Z,13.17
2023-04-07T07:55:31.184Z,13.29
2023-04-07T07:58:00.952Z,13.26
2023-04-07T08:00:29.905Z,12.84
2023-04-07T08:02:58.536Z,13.53
2023-04-07T08:05:27.314Z,13.14
2023-04-07T08:07:55.926Z,13.29
2023-04-07T08:10:25.359Z,12.90
2023-04-07T08:12:53.721Z,12.75
2023-04-07T08:15:23.910Z,13.44
2023-04-07T08:17:54.614Z,13.29
2023-04-07T08:20:24.078Z,13.38
2023-04-07T08:22:52.755Z,13.29
2023-04-07T08:25:21.427Z,13.38
2023-04-07T08:27:50.037Z,13.55
2023-04-07T08:30:18.599Z,13.32
2023-04-07T08:32:49.005Z,13.34
2023-04-07T08:35:17.416Z,13.47
2023-04-07T08:37:46.223Z,13.56
2023-04-07T08:40:14.760Z,13.43
2023-04-07T08:42:47.675Z,13.34
2023-04-07T08:45:19.446Z,13.66
2023-04-07T08:47:54.258Z,13.39
2023-04-07T08:50:23.774Z,13.43
2023-04-07T08:52:57.235Z,13.43
2023-04-07T08:55:26.264Z,13.67
2023-04-07T08:57:55.683Z,13.86
2023-04-07T09:00:24.463Z,13.11
2023-04-07T09:02:54.735Z,13.51
2023-04-07T09:05:25.191Z,13.56
2023-04-07T09:07:53.443Z,13.74
2023-04-07T09:10:22.343Z,13.68
2023-04-07T09:12:51.028Z,14.08
2023-04-07T09:15:19.969Z,13.80
2023-04-07T09:17:49.092Z,14.05
2023-04-07T09:20:19.988Z,14.22
2023-04-07T09:22:50.484Z,14.30
2023-04-07T09:25:22.794Z,13.52
2023-04-07T09:28:02.434Z,13.59
2023-04-07T09:30:32.544Z,13.95
2023-04-07T09:33:02.485Z,13.71
2023-04-07T09:35:35.429Z,14.13
2023-04-07T09:38:05.809Z,14.53
2023-04-07T09:40:34.944Z,14.49
2023-04-07T09:43:05.294Z,14.17
2023-04-07T09:45:36.546Z,14.41
2023-04-07T09:48:09.716Z,14.30
2023-04-07T09:50:42.167Z,14.61
2023-04-07T09:53:10.657Z,15.04
2023-04-07T09:55:40.933Z,14.45
2023-04-07T09:58:13.195Z,14.08
2023-04-07T10:00:42.464Z,13.91
2023-04-07T10:03:11.147Z,13.69
2023-04-07T10:05:41.589Z,14.46
2023-04-07T10:08:12.414Z,14.05
2023-04-07T10:10:44.738Z,14.06
2023-04-07T10:13:14.356Z,14.23
2023-04-07T10:15:42.985Z,13.26
2023-04-07T10:18:11.568Z,13.93
2023-04-07T10:20:43.314Z,14.32
2023-04-07T10:23:20.504Z,14.15
2023-04-07T10:25:52.769Z,14.23
2023-04-07T10:28:24.917Z,13.63
2023-04-07T10:30:54.252Z,14.64
2023-04-07T10:33:48.604Z,14.48
2023-04-07T10:36:20.632Z,14.01
2023-04-07T10:39:24.208Z,14.17
2023-04-07T10:41:53.356Z,14.21
2023-04-07T10:44:51.498Z,13.22
2023-04-07T10:47:19.808Z,13.88
2023-04-07T10:50:18.843Z,13.82
2023-04-07T10:52:50.462Z,13.74
2023-04-07T10:55:46.339Z,13.89
2023-04-07T10:58:18.181Z,14.35
2023-04-07T11:01:22.930Z,15.06
2023-04-07T11:04:02.523Z,15.03
2023-04-07T11:06:31.688Z,14.93
2023-04-07T11:09:01.685Z,14.64
2023-04-07T11:11:43.338Z,14.87
2023-04-07T11:14:15.729Z,14.48
2023-04-07T11:16:45.929Z,15.27
2023-04-07T11:19:14.373Z,14.86
2023-04-07T11:21:45.356Z,15.51
2023-04-07T11:24:33.946Z,15.63
2023-04-07T11:27:03.680Z,14.93
2023-04-07T11:29:33.130Z,15.63
2023-04-07T11:32:03.591Z,15.45
2023-04-07T11:34:33.364Z,15.36
2023-04-07T11:37:21.361Z,14.95
2023-04-07T11:39:54.957Z,15.52
2023-04-07T11:42:34.599Z,15.07
2023-04-07T11:45:10.809Z,15.10
2023-04-07T11:47:41.192Z,15.44
2023-04-07T11:50:12.175Z,14.94
2023-04-07T11:52:43.832Z,14.79
2023-04-07T11:55:22.474Z,15.05
2023-04-07T11:57:52.467Z,15.23
2023-04-07T12:00:22.375Z,15.32
2023-04-07T12:02:51.551Z,14.86
2023-04-07T12:05:20.217Z,15.49
2023-04-07T12:07:55.698Z,15.02
2023-04-07T12:10:27.174Z,14.80
2023-04-07T12:12:56.968Z,14.82
2023-04-07T12:15:27.475Z,14.91
2023-04-07T12:17:55.887Z,14.90
2023-04-07T12:20:24.571Z,15.13
2023-04-07T12:22:56.530Z,15.28
2023-04-07T12:25:27.588Z,15.27
2023-04-07T12:27:56.357Z,14.85
2023-04-07T12:30:24.832Z,14.50
2023-04-07T12:32:53.625Z,14.90
2023-04-07T12:35:23.029Z,14.36
2023-04-07T12:37:52.058Z,14.58
2023-04-07T12:40:21.340Z,14.55
2023-04-07T12:42:51.938Z,14.76
2023-04-07T12:45:24.131Z,14.50
2023-04-07T12:47:53.866Z,14.42
2023-04-07T12:50:22.245Z,14.40
2023-04-07T12:52:51.373Z,14.71
2023-04-07T12:55:19.923Z,14.79
2023-04-07T12:57:48.431Z,14.58
2023-04-07T13:00:21.407Z,14.81
2023-04-07T13:02:50.092Z,14.59
2023-04-07T13:05:19.719Z,14.53
2023-04-07T13:07:49.705Z,14.63
2023-04-07T13:10:19.269Z,14.79
2023-04-07T13:12:47.740Z,14.61
2023-04-07T13:15:17.637Z,14.55
2023-04-07T13:17:46.703Z,14.33
2023-04-07T13:20:19.799Z,14.10
2023-04-07T13:23:02.775Z,14.49
2023-04-07T13:25:34.224Z,14.69
2023-04-07T13:28:02.937Z,14.53
2023-04-07T13:30:33.227Z,14.60
2023-04-07T13:33:02.184Z,14.37
2023-04-07T13:35:33.830Z,14.17
2023-04-07T13:38:02.674Z,14.65
2023-04-07T13:40:33.032Z,14.76
2023-04-07T13:43:01.738Z,14.61
2023-04-07T13:45:30.084Z,14.63
2023-04-07T13:48:00.360Z,14.70
2023-04-07T13:50:29.287Z,14.93
2023-04-07T13:52:58.079Z,15.05
2023-04-07T13:55:26.552Z,14.41
2023-04-07T13:57:55.481Z,14.41
2023-04-07T14:00:24.235Z,14.78
2023-04-07T14:02:53.013Z,14.66
2023-04-07T14:05:23.067Z,14.57
2023-04-07T14:07:52.082Z,14.50
2023-04-07T14:10:20.715Z,14.58
2023-04-07T14:12:49.260Z,14.63
2023-04-07T14:15:18.456Z,14.67
2023-04-07T14:17:47.048Z,14.64
2023-04-07T14:20:15.886Z,14.59
2023-04-07T14:22:45.658Z,14.72
2023-04-07T14:25:14.074Z,14.63
2023-04-07T14:27:42.484Z,14.29
2023-04-07T14:30:12.911Z,14.45
2023-04-07T14:32:41.640Z,14.27
2023-04-07T14:35:11.230Z,14.07
2023-04-07T14:37:40.008Z,14.45
2023-04-07T14:40:12.108Z,14.13
2023-04-07T14:42:43.629Z,14.34
2023-04-07T14:45:13.552Z,13.76
2023-04-07T14:47:41.813Z,14.03
2023-04-07T14:50:14.142Z,14.12
2023-04-07T14:52:43.561Z,14.00
2023-04-07T14:55:13.976Z,14.07
2023-04-07T14:57:42.443Z,14.20
2023-04-07T15:00:12.282Z,13.87
2023-04-07T15:02:41.080Z,13.89
2023-04-07T15:05:10.659Z,13.97
2023-04-07T15:07:39.095Z,14.20
2023-04-07T15:10:08.576Z,14.64
2023-04-07T15:12:38.594Z,14.57
2023-04-07T15:15:10.161Z,14.62
2023-04-07T15:17:44.264Z,14.71
2023-04-07T15:20:14.045Z,14.60
2023-04-07T15:22:42.598Z,14.45
2023-04-07T15:25:11.553Z,14.37
2023-04-07T15:27:41.392Z,14.32
2023-04-07T15:30:21.810Z,14.26
2023-04-07T15:33:01.915Z,14.26
2023-04-07T15:35:31.945Z,14.33
2023-04-07T15:38:01.602Z,14.29
2023-04-07T15:40:36.926Z,14.51
2023-04-07T15:43:10.725Z,14.58
2023-04-07T15:45:43.705Z,14.25
2023-04-07T15:48:15.411Z,14.09
2023-04-07T15:50:44.092Z,14.15
2023-04-07T15:53:12.943Z,13.95
2023-04-07T15:55:42.107Z,13.54
2023-04-07T15:58:12.393Z,13.96
2023-04-07T16:00:41.320Z,13.97
2023-04-07T16:03:10.005Z,14.00
2023-04-07T16:05:39.778Z,13.93
2023-04-07T16:08:08.969Z,14.17
2023-04-07T16:10:37.473Z,13.95
2023-04-07T16:13:05.975Z,13.73
2023-04-07T16:15:40.496Z,14.14
2023-04-07T16:18:12.723Z,14.16
2023-04-07T16:20:41.919Z,13.81
2023-04-07T16:23:11.112Z,13.98
2023-04-07T16:25:40.007Z,14.11
2023-04-07T16:28:08.790Z,14.16
2023-04-07T16:30:39.143Z,13.80
2023-04-07T16:33:07.649Z,13.84
2023-04-07T16:35:36.076Z,13.73
2023-04-07T16:38:06.437Z,13.85
2023-04-07T16:40:35.408Z,13.95
2023-04-07T16:43:04.058Z,13.70
2023-04-07T16:45:32.724Z,13.63
2023-04-07T16:48:03.873Z,13.93
2023-04-07T16:50:32.445Z,13.71
2023-04-07T16:53:00.888Z,13.75
2023-04-07T16:55:29.144Z,13.72
2023-04-07T16:57:57.395Z,13.98
2023-04-07T17:00:27.454Z,13.97
2023-04-07T17:02:56.128Z,13.76
2023-04-07T17:05:26.578Z,13.68
2023-04-07T17:07:56.151Z,13.66
2023-04-07T17:10:25.515Z,13.45
2023-04-07T17:12:56.205Z,13.53
2023-04-07T17:15:24.839Z,13.75
2023-04-07T17:17:54.064Z,13.87
2023-04-07T17:20:23.548Z,13.86
2023-04-07T17:22:57.844Z,13.59
2023-04-07T17:25:26.570Z,13.94
2023-04-07T17:27:55.489Z,13.77
2023-04-07T17:30:23.840Z,13.93
2023-04-07T17:32:53.566Z,13.97
2023-04-07T17:35:22.760Z,13.86
2023-04-07T17:37:53.538Z,13.85
2023-04-07T17:40:22.400Z,13.62
2023-04-07T17:42:50.899Z,13.71
2023-04-07T17:45:19.192Z,14.08
2023-04-07T17:47:48.693Z,13.78
2023-04-07T17:50:17.578Z,14.04
2023-04-07T17:52:48.210Z,14.22
2023-04-07T17:55:22.635Z,14.04
2023-04-07T17:57:53.593Z,14.04
2023-04-07T18:00:23.815Z,14.37
2023-04-07T18:02:53.794Z,14.38
2023-04-07T18:05:23.558Z,14.37
2023-04-07T18:07:55.198Z,14.41
2023-04-07T18:10:26.074Z,14.37
2023-04-07T18:12:55.267Z,14.42
2023-04-07T18:15:27.935Z,14.48
2023-04-07T18:17:57.127Z,14.53
2023-04-07T18:20:26.018Z,14.47
2023-04-07T18:22:55.771Z,14.24
2023-04-07T18:25:27.956Z,14.20
2023-04-07T18:27:58.947Z,14.47
2023-04-07T18:30:27.323Z,14.49
2023-04-07T18:32:56.309Z,14.28
2023-04-07T18:35:25.822Z,14.19
2023-04-07T18:37:55.088Z,14.09
2023-04-07T18:40:28.978Z,13.90
2023-04-07T18:42:58.295Z,13.94
2023-04-07T18:45:27.350Z,14.14
2023-04-07T18:47:55.840Z,14.12
2023-04-07T18:50:24.652Z,14.23
2023-04-07T18:52:55.830Z,14.28
2023-04-07T18:55:26.170Z,14.19
2023-04-07T18:58:04.710Z,13.98
2023-04-07T19:00:33.537Z,13.93
2023-04-07T19:03:02.519Z,13.97
2023-04-07T19:05:31.787Z,13.67
2023-04-07T19:08:01.154Z,13.85
2023-04-07T19:10:31.349Z,13.90
2023-04-07T19:13:00.772Z,13.99
2023-04-07T19:15:30.351Z,13.96
2023-04-07T19:17:59.208Z,13.96
2023-04-07T19:20:28.153Z,14.03
2023-04-07T19:22:57.572Z,14.05
2023-04-07T19:25:27.453Z,14.03
2023-04-07T19:28:00.468Z,14.06
2023-04-07T19:30:30.567Z,14.03
2023-04-07T19:32:58.992Z,13.97
2023-04-07T19:35:27.572Z,14.01
2023-04-07T19:38:01.003Z,14.00
2023-04-07T19:40:31.521Z,13.97
2023-04-07T19:43:01.640Z,13.96
2023-04-07T19:45:30.145Z,13.85
2023-04-07T19:47:59.246Z,13.87
2023-04-07T19:50:28.532Z,13.91
2023-04-07T19:52:57.053Z,13.76
2023-04-07T19:55:26.034Z,13.89
2023-04-07T19:57:57.638Z,13.85
2023-04-07T20:00:30.654Z,13.84
2023-04-07T20:03:01.762Z,13.81
2023-04-07T20:05:30.813Z,13.77
2023-04-07T20:07:59.501Z,13.75
2023-04-07T20:10:28.243Z,13.85
2023-04-07T20:12:57.210Z,13.78
2023-04-07T20:15:28.859Z,13.78
2023-04-07T20:17:57.629Z,13.79
2023-04-07T20:20:26.359Z,13.78
2023-04-07T20:22:54.840Z,13.80
2023-04-07T20:25:23.970Z,13.80
2023-04-07T20:27:52.555Z,13.75
2023-04-07T20:30:21.399Z,13.71
2023-04-07T20:33:00.242Z,13.70
2023-04-07T20:35:28.866Z,13.68
2023-04-07T20:37:59.827Z,13.66
2023-04-07T20:40:28.537Z,13.64
2023-04-07T20:42:56.955Z,13.59
2023-04-07T20:45:26.830Z,13.57
2023-04-07T20:47:57.186Z,13.51
2023-04-07T20:50:25.841Z,13.42
2023-04-07T20:52:54.481Z,13.35
2023-04-07T20:55:22.867Z,13.33
2023-04-07T20:57:53.673Z,13.29
2023-04-07T21:00:22.960Z,13.29
2023-04-07T21:02:51.681Z,13.23
2023-04-07T21:05:21.670Z,13.19
2023-04-07T21:07:50.217Z,13.14
2023-04-07T21:10:18.715Z,13.07
2023-04-07T21:12:48.183Z,13.02
2023-04-07T21:15:16.779Z,12.91
2023-04-07T21:17:46.065Z,12.87
2023-04-07T21:20:14.945Z,12.86
2023-04-07T21:22:44.605Z,12.77
2023-04-07T21:25:12.914Z,12.70
2023-04-07T21:27:41.627Z,12.64
2023-04-07T21:30:13.924Z,12.54
2023-04-07T21:32:42.394Z,12.61
2023-04-07T21:35:11.252Z,12.56
2023-04-07T21:37:39.699Z,12.68
2023-04-07T21:40:11.192Z,12.66
2023-04-07T21:42:39.695Z,12.69
2023-04-07T21:45:10.666Z,12.71
2023-04-07T21:47:39.299Z,12.71
2023-04-07T21:50:09.363Z,12.71
2023-04-07T21:52:38.464Z,12.66
2023-04-07T21:55:11.435Z,12.59
2023-04-07T21:57:39.898Z,12.62
2023-04-07T22:00:10.703Z,12.55
2023-04-07T22:02:39.363Z,12.51
2023-04-07T22:05:08.359Z,12.49
2023-04-07T22:07:37.461Z,12.46
2023-04-07T22:10:06.858Z,12.41
2023-04-07T22:12:36.786Z,12.40
2023-04-07T22:15:06.619Z,12.36
2023-04-07T22:17:35.730Z,12.32
2023-04-07T22:20:05.150Z,12.35
2023-04-07T22:22:33.513Z,12.33
2023-04-07T22:25:01.809Z,12.30
2023-04-07T22:27:30.108Z,12.30
2023-04-07T22:29:59.759Z,12.25
2023-04-07T22:32:28.146Z,12.19
2023-04-07T22:34:56.665Z,12.18
2023-04-07T22:37:25.110Z,12.15
2023-04-07T22:39:53.357Z,12.16
2023-04-07T22:42:21.720Z,12.13
2023-04-07T22:44:50.015Z,12.14
2023-04-07T22:47:19.847Z,12.18
2023-04-07T22:49:48.212Z,12.16
2023-04-07T22:52:16.581Z,12.08
2023-04-07T22:54:44.945Z,12.09
2023-04-07T22:57:13.401Z,12.17
2023-04-07T22:59:41.813Z,12.14
2023-04-07T23:02:10.857Z,12.19
2023-04-07T23:04:41.152Z,12.25
2023-04-07T23:07:09.660Z,12.31
2023-04-07T23:09:38.460Z,12.34
2023-04-07T23:12:06.928Z,12.33
2023-04-07T23:14:35.378Z,12.39
2023-04-07T23:17:03.728Z,12.37
2023-04-07T23:19:32.224Z,12.26
2023-04-07T23:22:03.661Z,12.20
2023-04-07T23:24:32.009Z,12.21
2023-04-07T23:27:00.836Z,12.12
2023-04-07T23:29:29.567Z,12.31
2023-04-07T23:31:57.997Z,12.38
2023-04-07T23:34:26.576Z,12.46
2023-04-07T23:36:54.980Z,12.34
2023-04-07T23:39:25.494Z,12.26
2023-04-07T23:41:53.654Z,12.35
2023-04-07T23:44:22.100Z,12.33
2023-04-07T23:46:50.453Z,12.31
2023-04-07T23:49:19.238Z,12.31
2023-04-07T23:51:47.826Z,12.20
2023-04-07T23:54:16.393Z,12.21
2023-04-07T23:56:46.715Z,12.29
2023-04-07T23:59:15.080Z,12.05
